القامشلي, سوريا

10:45 PM EEST on ابریل 25, 2015 (GMT +0300)
Batman Air Base | | Change Station
CLOSE
Current Station
Airport
Location: Batman,
Elevation: 1821 ft
Nearby Weather Stations

Elev 1821 ft 37.93 °N, 41.12 °E | Updated 25 minutes ago

Clear
صافية
48 °F
Feels Like 48 °F
N
1
ريح متغير ريح from ENE

هذا اليوم
High -- | Low -- °F
--% Chance of Precip.
Yesterday
High -- | Low -- °F
Precip. -- في
5:28 AM 6:58 PM
الهلال الأول, 48% visible
الضغط 30.21 في
وضوح الرؤية -9999.0 أميال
سحابات
نقطة الندى 45 °F
الرطوبة 87%
Rainfall 0.00 في
عمق الثلج Not available.
الأشعة فوق البنفسجية Not available.
Pollen Not available.
جودة الهواء Not available.
Flu Activity Not available.
METAR LTCJ 251920Z 06001KT CAVOK 09/07 Q1023

More Conditions Fewer Conditions

الضغط 30.21 في
وضوح الرؤية -9999.0 أميال
سحابات
نقطة الندى 45 °F
الرطوبة 87%
Rainfall 0.00 في
عمق الثلج Not available.
الأشعة فوق البنفسجية Not available.
Pollen Not available.
جودة الهواء Not available.
Flu Activity Not available.
METAR LTCJ 251920Z 06001KT CAVOK 09/07 Q1023

More Conditions Fewer Conditions

10-Day Weather Forecast

Almanac

علم الفلك

Apr. 25, 2015 Rise Set
Actual Time
Civil Twilight
Nautical Twilight
Astronomical Twilight
قمر
Length Of Visible Light
طول الیوم
Tomorrow will be .
, % of the Moon is Illuminated

Today's Extremes

Country Highs Country Lows

Community

WunderPhotos

Upload Photos

1,816,791 photos uploaded!

WunderBlogs® & News

Nearby

جودة الهواء

  جودة الهواء AQ Index Pollutant
Not available.

عمق الثلج

Station Depth Elevation

Earthquake Activity

City Distance Mag. Time & Date
Minimum magnitude displayed is 2.5.

Coastal Water Temperatures

مكان درجات الحرارة

Stations

Nearby Weather Stations

Station Location الحرارة رياح باردة نقطة الندى الرطوبة ريح Precip. Elev تحديث Type